sensor_id;sensor_type;location;lat;lon;timestamp;pressure;altitude;pressure_sealevel;temperature;humidity
50310;BME280;36207;51.850;21.698;2024-01-15T00:01:21;97827.79;;;0.59;91.98
50310;BME280;36207;51.850;21.698;2024-01-15T00:03:48;97826.15;;;0.60;92.12
50310;BME280;36207;51.850;21.698;2024-01-15T00:06:14;97818.08;;;0.61;92.04
50310;BME280;36207;51.850;21.698;2024-01-15T00:08:40;97810.60;;;0.61;92.06
50310;BME280;36207;51.850;21.698;2024-01-15T00:11:05;97807.68;;;0.62;92.10
50310;BME280;36207;51.850;21.698;2024-01-15T00:13:31;97800.79;;;0.63;92.03
50310;BME280;36207;51.850;21.698;2024-01-15T00:15:57;97798.16;;;0.64;92.00
50310;BME280;36207;51.850;21.698;2024-01-15T00:18:23;97794.18;;;0.64;91.94
50310;BME280;36207;51.850;21.698;2024-01-15T00:20:49;97790.83;;;0.64;91.73
50310;BME280;36207;51.850;21.698;2024-01-15T00:23:15;97787.06;;;0.63;91.73
50310;BME280;36207;51.850;21.698;2024-01-15T00:25:41;97787.06;;;0.63;91.68
50310;BME280;36207;51.850;21.698;2024-01-15T00:28:07;97780.35;;;0.63;91.84
50310;BME280;36207;51.850;21.698;2024-01-15T00:30:33;97775.23;;;0.64;91.74
50310;BME280;36207;51.850;21.698;2024-01-15T00:32:58;97770.38;;;0.63;91.66
50310;BME280;36207;51.850;21.698;2024-01-15T00:35:24;97767.86;;;0.62;91.72
50310;BME280;36207;51.850;21.698;2024-01-15T00:37:50;97770.23;;;0.62;91.78
50310;BME280;36207;51.850;21.698;2024-01-15T00:40:16;97770.17;;;0.59;91.60
50310;BME280;36207;51.850;21.698;2024-01-15T00:42:42;97763.66;;;0.58;91.62
50310;BME280;36207;51.850;21.698;2024-01-15T00:45:09;97760.89;;;0.58;91.66
50310;BME280;36207;51.850;21.698;2024-01-15T00:47:35;97754.71;;;0.58;91.76
50310;BME280;36207;51.850;21.698;2024-01-15T00:50:01;97756.91;;;0.59;91.89
50310;BME280;36207;51.850;21.698;2024-01-15T00:52:27;97753.59;;;0.59;91.78
50310;BME280;36207;51.850;21.698;2024-01-15T00:54:53;97748.47;;;0.59;91.82
50310;BME280;36207;51.850;21.698;2024-01-15T00:57:18;97742.98;;;0.59;91.81
50310;BME280;36207;51.850;21.698;2024-01-15T00:59:45;97740.48;;;0.60;91.74
50310;BME280;36207;51.850;21.698;2024-01-15T01:02:11;97730.05;;;0.59;91.66
50310;BME280;36207;51.850;21.698;2024-01-15T01:04:37;97729.82;;;0.58;91.76
50310;BME280;36207;51.850;21.698;2024-01-15T01:07:03;97728.67;;;0.58;91.54
50310;BME280;36207;51.850;21.698;2024-01-15T01:09:28;97729.45;;;0.57;91.62
50310;BME280;36207;51.850;21.698;2024-01-15T01:11:56;97728.27;;;0.57;91.64
50310;BME280;36207;51.850;21.698;2024-01-15T01:14:22;97724.06;;;0.57;91.62
50310;BME280;36207;51.850;21.698;2024-01-15T01:16:48;97718.73;;;0.57;91.66
50310;BME280;36207;51.850;21.698;2024-01-15T01:19:14;97714.63;;;0.58;91.76
50310;BME280;36207;51.850;21.698;2024-01-15T01:21:41;97710.46;;;0.59;91.66
50310;BME280;36207;51.850;21.698;2024-01-15T01:24:06;97711.86;;;0.61;91.76
50310;BME280;36207;51.850;21.698;2024-01-15T01:26:32;97711.63;;;0.61;91.70
50310;BME280;36207;51.850;21.698;2024-01-15T01:28:58;97704.77;;;0.61;91.74
50310;BME280;36207;51.850;21.698;2024-01-15T01:31:24;97697.08;;;0.61;91.55
50310;BME280;36207;51.850;21.698;2024-01-15T01:33:50;97683.88;;;0.60;91.53
50310;BME280;36207;51.850;21.698;2024-01-15T01:36:16;97678.67;;;0.60;91.61
50310;BME280;36207;51.850;21.698;2024-01-15T01:38:42;97680.84;;;0.61;91.56
50310;BME280;36207;51.850;21.698;2024-01-15T01:41:08;97676.20;;;0.62;91.41
50310;BME280;36207;51.850;21.698;2024-01-15T01:43:34;97678.00;;;0.61;91.43
50310;BME280;36207;51.850;21.698;2024-01-15T01:46:01;97679.11;;;0.59;91.47
50310;BME280;36207;51.850;21.698;2024-01-15T01:48:29;97678.28;;;0.59;91.58
50310;BME280;36207;51.850;21.698;2024-01-15T01:51:00;97674.94;;;0.59;91.54
50310;BME280;36207;51.850;21.698;2024-01-15T01:53:29;97673.39;;;0.59;91.58
50310;BME280;36207;51.850;21.698;2024-01-15T01:55:58;97668.55;;;0.56;91.57
50310;BME280;36207;51.850;21.698;2024-01-15T01:58:25;97674.46;;;0.56;91.37
50310;BME280;36207;51.850;21.698;2024-01-15T02:00:51;97670.42;;;0.56;91.36
50310;BME280;36207;51.850;21.698;2024-01-15T02:03:17;97665.60;;;0.57;91.31
50310;BME280;36207;51.850;21.698;2024-01-15T02:05:43;97664.88;;;0.55;91.02
50310;BME280;36207;51.850;21.698;2024-01-15T02:08:10;97662.36;;;0.53;90.98
50310;BME280;36207;51.850;21.698;2024-01-15T02:10:36;97663.09;;;0.52;90.95
50310;BME280;36207;51.850;21.698;2024-01-15T02:13:02;97661.28;;;0.51;90.84
50310;BME280;36207;51.850;21.698;2024-01-15T02:15:29;97658.41;;;0.49;90.68
50310;BME280;36207;51.850;21.698;2024-01-15T02:18:03;97655.45;;;0.47;90.91
50310;BME280;36207;51.850;21.698;2024-01-15T02:20:31;97652.09;;;0.46;90.93
50310;BME280;36207;51.850;21.698;2024-01-15T02:25:32;97645.50;;;0.43;90.99
50310;BME280;36207;51.850;21.698;2024-01-15T02:27:58;97645.73;;;0.43;91.06
50310;BME280;36207;51.850;21.698;2024-01-15T02:30:25;97636.80;;;0.41;91.05
50310;BME280;36207;51.850;21.698;2024-01-15T02:32:51;97640.89;;;0.41;90.98
50310;BME280;36207;51.850;21.698;2024-01-15T02:35:17;97641.58;;;0.38;90.84
50310;BME280;36207;51.850;21.698;2024-01-15T02:37:43;97643.05;;;0.37;90.96
50310;BME280;36207;51.850;21.698;2024-01-15T02:40:09;97633.52;;;0.37;90.90
50310;BME280;36207;51.850;21.698;2024-01-15T02:42:35;97631.73;;;0.37;90.81
50310;BME280;36207;51.850;21.698;2024-01-15T02:45:01;97631.67;;;0.39;90.90
50310;BME280;36207;51.850;21.698;2024-01-15T02:47:27;97626.17;;;0.38;90.54
50310;BME280;36207;51.850;21.698;2024-01-15T02:49:53;97619.16;;;0.36;90.40
50310;BME280;36207;51.850;21.698;2024-01-15T02:52:19;97615.30;;;0.37;90.54
50310;BME280;36207;51.850;21.698;2024-01-15T02:54:45;97614.54;;;0.36;90.56
50310;BME280;36207;51.850;21.698;2024-01-15T02:57:11;97616.53;;;0.36;90.66
50310;BME280;36207;51.850;21.698;2024-01-15T02:59:36;97612.84;;;0.38;90.57
50310;BME280;36207;51.850;21.698;2024-01-15T03:02:03;97610.70;;;0.38;90.70
50310;BME280;36207;51.850;21.698;2024-01-15T03:04:29;97608.80;;;0.38;90.51
50310;BME280;36207;51.850;21.698;2024-01-15T03:06:54;97604.27;;;0.37;90.48
50310;BME280;36207;51.850;21.698;2024-01-15T03:09:20;97602.20;;;0.36;90.43
50310;BME280;36207;51.850;21.698;2024-01-15T03:11:47;97604.69;;;0.36;90.34
50310;BME280;36207;51.850;21.698;2024-01-15T03:14:14;97599.90;;;0.37;90.50
50310;BME280;36207;51.850;21.698;2024-01-15T03:16:40;97603.16;;;0.39;90.55
50310;BME280;36207;51.850;21.698;2024-01-15T03:19:07;97593.93;;;0.40;90.48
50310;BME280;36207;51.850;21.698;2024-01-15T03:21:33;97595.84;;;0.40;90.24
50310;BME280;36207;51.850;21.698;2024-01-15T03:23:59;97586.95;;;0.40;90.28
50310;BME280;36207;51.850;21.698;2024-01-15T03:26:25;97582.35;;;0.40;90.27
50310;BME280;36207;51.850;21.698;2024-01-15T03:28:52;97570.25;;;0.42;90.56
50310;BME280;36207;51.850;21.698;2024-01-15T03:31:18;97561.98;;;0.45;90.61
50310;BME280;36207;51.850;21.698;2024-01-15T03:33:44;97552.42;;;0.48;90.21
50310;BME280;36207;51.850;21.698;2024-01-15T03:36:09;97549.86;;;0.49;90.34
50310;BME280;36207;51.850;21.698;2024-01-15T03:38:40;97544.00;;;0.49;90.21
50310;BME280;36207;51.850;21.698;2024-01-15T03:41:07;97546.27;;;0.50;90.30
50310;BME280;36207;51.850;21.698;2024-01-15T03:43:33;97542.64;;;0.49;90.12
50310;BME280;36207;51.850;21.698;2024-01-15T03:45:59;97543.15;;;0.48;89.93
50310;BME280;36207;51.850;21.698;2024-01-15T03:48:25;97538.39;;;0.48;90.16
50310;BME280;36207;51.850;21.698;2024-01-15T03:50:51;97534.55;;;0.48;90.00
50310;BME280;36207;51.850;21.698;2024-01-15T03:53:17;97530.02;;;0.48;89.84
50310;BME280;36207;51.850;21.698;2024-01-15T03:55:42;97525.30;;;0.46;89.71
50310;BME280;36207;51.850;21.698;2024-01-15T03:58:08;97518.77;;;0.45;89.73
50310;BME280;36207;51.850;21.698;2024-01-15T04:00:34;97520.41;;;0.45;89.78
50310;BME280;36207;51.850;21.698;2024-01-15T04:03:00;97521.19;;;0.42;89.93
50310;BME280;36207;51.850;21.698;2024-01-15T04:05:26;97519.76;;;0.39;90.05
50310;BME280;36207;51.850;21.698;2024-01-15T04:07:52;97515.73;;;0.37;90.14
50310;BME280;36207;51.850;21.698;2024-01-15T04:10:18;97512.88;;;0.34;90.18
50310;BME280;36207;51.850;21.698;2024-01-15T04:12:44;97509.86;;;0.31;90.23
50310;BME280;36207;51.850;21.698;2024-01-15T04:15:12;97507.02;;;0.31;90.27
50310;BME280;36207;51.850;21.698;2024-01-15T04:17:38;97504.84;;;0.31;90.16
50310;BME280;36207;51.850;21.698;2024-01-15T04:20:05;97507.66;;;0.31;90.20
50310;BME280;36207;51.850;21.698;2024-01-15T04:22:31;97506.15;;;0.30;90.14
50310;BME280;36207;51.850;21.698;2024-01-15T04:24:57;97502.38;;;0.29;90.12
50310;BME280;36207;51.850;21.698;2024-01-15T04:27:22;97492.89;;;0.30;90.17
50310;BME280;36207;51.850;21.698;2024-01-15T04:29:49;97484.56;;;0.31;90.08
50310;BME280;36207;51.850;21.698;2024-01-15T04:32:14;97488.17;;;0.31;89.94
50310;BME280;36207;51.850;21.698;2024-01-15T04:34:40;97487.33;;;0.32;89.95
50310;BME280;36207;51.850;21.698;2024-01-15T04:37:06;97482.55;;;0.34;89.85
50310;BME280;36207;51.850;21.698;2024-01-15T04:39:32;97474.12;;;0.36;89.86
50310;BME280;36207;51.850;21.698;2024-01-15T04:41:58;97472.91;;;0.37;89.47
50310;BME280;36207;51.850;21.698;2024-01-15T04:44:24;97470.15;;;0.38;89.74
50310;BME280;36207;51.850;21.698;2024-01-15T04:46:50;97468.02;;;0.37;89.45
50310;BME280;36207;51.850;21.698;2024-01-15T04:49:16;97462.09;;;0.37;89.05
50310;BME280;36207;51.850;21.698;2024-01-15T04:51:42;97465.82;;;0.38;89.03
50310;BME280;36207;51.850;21.698;2024-01-15T04:54:07;97457.53;;;0.40;89.11
50310;BME280;36207;51.850;21.698;2024-01-15T04:56:34;97459.19;;;0.39;88.87
50310;BME280;36207;51.850;21.698;2024-01-15T04:58:59;97455.05;;;0.39;89.15
50310;BME280;36207;51.850;21.698;2024-01-15T05:01:30;97453.13;;;0.37;89.15
50310;BME280;36207;51.850;21.698;2024-01-15T05:03:56;97448.27;;;0.34;89.18
50310;BME280;36207;51.850;21.698;2024-01-15T05:06:23;97445.11;;;0.31;89.38
50310;BME280;36207;51.850;21.698;2024-01-15T05:08:49;97444.75;;;0.30;89.41
50310;BME280;36207;51.850;21.698;2024-01-15T05:11:14;97441.06;;;0.29;89.49
50310;BME280;36207;51.850;21.698;2024-01-15T05:13:40;97443.17;;;0.28;89.58
50310;BME280;36207;51.850;21.698;2024-01-15T05:16:06;97438.70;;;0.28;89.69
50310;BME280;36207;51.850;21.698;2024-01-15T05:18:32;97439.63;;;0.27;89.56
50310;BME280;36207;51.850;21.698;2024-01-15T05:21:04;97439.34;;;0.27;89.50
50310;BME280;36207;51.850;21.698;2024-01-15T05:23:31;97438.73;;;0.26;89.45
50310;BME280;36207;51.850;21.698;2024-01-15T05:25:57;97442.33;;;0.27;89.41
50310;BME280;36207;51.850;21.698;2024-01-15T05:28:23;97441.14;;;0.26;89.23
50310;BME280;36207;51.850;21.698;2024-01-15T05:30:49;97434.13;;;0.26;89.13
50310;BME280;36207;51.850;21.698;2024-01-15T05:33:19;97429.77;;;0.29;89.39
50310;BME280;36207;51.850;21.698;2024-01-15T05:35:45;97430.48;;;0.31;89.34
50310;BME280;36207;51.850;21.698;2024-01-15T05:38:10;97433.46;;;0.30;89.21
50310;BME280;36207;51.850;21.698;2024-01-15T05:40:36;97427.18;;;0.29;89.30
50310;BME280;36207;51.850;21.698;2024-01-15T05:43:02;97426.64;;;0.28;89.52
50310;BME280;36207;51.850;21.698;2024-01-15T05:45:30;97427.13;;;0.26;89.80
50310;BME280;36207;51.850;21.698;2024-01-15T05:47:56;97433.59;;;0.25;89.96
50310;BME280;36207;51.850;21.698;2024-01-15T05:50:22;97432.67;;;0.22;90.27
50310;BME280;36207;51.850;21.698;2024-01-15T05:52:48;97433.52;;;0.19;90.32
50310;BME280;36207;51.850;21.698;2024-01-15T05:55:14;97431.11;;;0.18;90.44
50310;BME280;36207;51.850;21.698;2024-01-15T05:57:40;97426.59;;;0.17;90.57
50310;BME280;36207;51.850;21.698;2024-01-15T06:00:07;97428.38;;;0.18;90.66
50310;BME280;36207;51.850;21.698;2024-01-15T06:02:34;97433.77;;;0.17;90.80
50310;BME280;36207;51.850;21.698;2024-01-15T06:05:00;97429.41;;;0.17;90.74
50310;BME280;36207;51.850;21.698;2024-01-15T06:07:28;97425.13;;;0.16;90.77
50310;BME280;36207;51.850;21.698;2024-01-15T06:09:54;97423.21;;;0.16;90.64
50310;BME280;36207;51.850;21.698;2024-01-15T06:12:22;97418.23;;;0.17;90.71
50310;BME280;36207;51.850;21.698;2024-01-15T06:14:49;97419.81;;;0.18;90.60
50310;BME280;36207;51.850;21.698;2024-01-15T06:17:15;97420.30;;;0.18;90.56
50310;BME280;36207;51.850;21.698;2024-01-15T06:19:40;97412.40;;;0.16;90.62
50310;BME280;36207;51.850;21.698;2024-01-15T06:22:06;97413.19;;;0.15;90.68
50310;BME280;36207;51.850;21.698;2024-01-15T06:24:32;97415.23;;;0.14;90.71
50310;BME280;36207;51.850;21.698;2024-01-15T06:26:58;97415.83;;;0.13;90.67
50310;BME280;36207;51.850;21.698;2024-01-15T06:29:25;97415.64;;;0.12;90.87
50310;BME280;36207;51.850;21.698;2024-01-15T06:31:51;97418.56;;;0.11;91.08
50310;BME280;36207;51.850;21.698;2024-01-15T06:34:17;97421.60;;;0.09;91.30
50310;BME280;36207;51.850;21.698;2024-01-15T06:36:44;97415.50;;;0.09;91.22
50310;BME280;36207;51.850;21.698;2024-01-15T06:39:10;97416.16;;;0.09;91.14
50310;BME280;36207;51.850;21.698;2024-01-15T06:41:36;97408.31;;;0.09;91.08
50310;BME280;36207;51.850;21.698;2024-01-15T06:44:12;97404.00;;;0.09;91.23
50310;BME280;36207;51.850;21.698;2024-01-15T06:46:45;97398.96;;;0.07;91.28
50310;BME280;36207;51.850;21.698;2024-01-15T06:49:11;97399.06;;;0.06;91.32
50310;BME280;36207;51.850;21.698;2024-01-15T06:51:37;97397.30;;;0.06;91.00
50310;BME280;36207;51.850;21.698;2024-01-15T06:54:04;97398.27;;;0.07;91.10
50310;BME280;36207;51.850;21.698;2024-01-15T06:56:33;97401.23;;;0.07;91.04
50310;BME280;36207;51.850;21.698;2024-01-15T06:58:59;97396.77;;;0.06;91.03
50310;BME280;36207;51.850;21.698;2024-01-15T07:01:25;97398.27;;;0.05;90.96
50310;BME280;36207;51.850;21.698;2024-01-15T07:03:51;97392.21;;;0.05;90.98
50310;BME280;36207;51.850;21.698;2024-01-15T07:06:16;97399.38;;;0.03;91.15
50310;BME280;36207;51.850;21.698;2024-01-15T07:08:43;97402.23;;;0.03;91.29
50310;BME280;36207;51.850;21.698;2024-01-15T07:11:09;97401.54;;;0.02;91.20
50310;BME280;36207;51.850;21.698;2024-01-15T07:13:36;97403.55;;;0.02;91.20
50310;BME280;36207;51.850;21.698;2024-01-15T07:16:03;97407.42;;;0.02;91.14
50310;BME280;36207;51.850;21.698;2024-01-15T07:18:29;97408.48;;;0.02;90.91
50310;BME280;36207;51.850;21.698;2024-01-15T07:20:55;97412.55;;;0.03;90.97
50310;BME280;36207;51.850;21.698;2024-01-15T07:23:21;97409.57;;;0.03;90.94
50310;BME280;36207;51.850;21.698;2024-01-15T07:25:47;97410.16;;;0.04;91.05
50310;BME280;36207;51.850;21.698;2024-01-15T07:28:13;97413.48;;;0.02;91.05
50310;BME280;36207;51.850;21.698;2024-01-15T07:30:39;97415.18;;;0.02;90.96
50310;BME280;36207;51.850;21.698;2024-01-15T07:33:05;97411.88;;;0.02;90.88
50310;BME280;36207;51.850;21.698;2024-01-15T07:35:32;97408.23;;;0.04;90.78
50310;BME280;36207;51.850;21.698;2024-01-15T07:37:58;97411.69;;;0.07;90.64
50310;BME280;36207;51.850;21.698;2024-01-15T07:40:24;97408.53;;;0.10;90.57
50310;BME280;36207;51.850;21.698;2024-01-15T07:42:51;97411.06;;;0.14;90.61
50310;BME280;36207;51.850;21.698;2024-01-15T07:45:17;97402.13;;;0.17;90.39
50310;BME280;36207;51.850;21.698;2024-01-15T07:47:43;97398.34;;;0.19;90.16
50310;BME280;36207;51.850;21.698;2024-01-15T07:50:10;97397.95;;;0.20;90.05
50310;BME280;36207;51.850;21.698;2024-01-15T07:52:36;97391.16;;;0.19;89.87
50310;BME280;36207;51.850;21.698;2024-01-15T07:55:02;97402.38;;;0.21;90.06
50310;BME280;36207;51.850;21.698;2024-01-15T07:57:31;97405.98;;;0.21;89.96
50310;BME280;36207;51.850;21.698;2024-01-15T07:59:57;97399.88;;;0.23;90.02
50310;BME280;36207;51.850;21.698;2024-01-15T08:02:23;97399.48;;;0.23;90.09
50310;BME280;36207;51.850;21.698;2024-01-15T08:04:49;97393.08;;;0.23;90.08
50310;BME280;36207;51.850;21.698;2024-01-15T08:07:15;97395.92;;;0.24;90.13
50310;BME280;36207;51.850;21.698;2024-01-15T08:09:41;97394.60;;;0.25;90.04
50310;BME280;36207;51.850;21.698;2024-01-15T08:12:07;97392.66;;;0.24;90.25
50310;BME280;36207;51.850;21.698;2024-01-15T08:14:34;97387.93;;;0.22;90.26
50310;BME280;36207;51.850;21.698;2024-01-15T08:17:00;97389.98;;;0.20;90.43
50310;BME280;36207;51.850;21.698;2024-01-15T08:19:27;97394.31;;;0.19;90.46
50310;BME280;36207;51.850;21.698;2024-01-15T08:21:53;97394.97;;;0.20;90.41
50310;BME280;36207;51.850;21.698;2024-01-15T08:24:19;97391.98;;;0.20;90.45
50310;BME280;36207;51.850;21.698;2024-01-15T08:26:45;97395.39;;;0.21;90.45
50310;BME280;36207;51.850;21.698;2024-01-15T08:29:11;97391.97;;;0.22;90.40
50310;BME280;36207;51.850;21.698;2024-01-15T08:31:37;97392.05;;;0.21;90.46
50310;BME280;36207;51.850;21.698;2024-01-15T08:34:03;97398.51;;;0.21;90.34
50310;BME280;36207;51.850;21.698;2024-01-15T08:36:29;97402.18;;;0.21;90.27
50310;BME280;36207;51.850;21.698;2024-01-15T08:38:58;97399.71;;;0.23;90.40
50310;BME280;36207;51.850;21.698;2024-01-15T08:41:24;97400.04;;;0.23;90.39
50310;BME280;36207;51.850;21.698;2024-01-15T08:43:50;97396.33;;;0.24;90.31
50310;BME280;36207;51.850;21.698;2024-01-15T08:46:17;97395.02;;;0.27;90.42
50310;BME280;36207;51.850;21.698;2024-01-15T08:48:42;97396.00;;;0.31;90.39
50310;BME280;36207;51.850;21.698;2024-01-15T08:51:08;97392.98;;;0.32;90.28
50310;BME280;36207;51.850;21.698;2024-01-15T08:53:34;97391.93;;;0.34;90.40
50310;BME280;36207;51.850;21.698;2024-01-15T08:56:00;97392.68;;;0.33;90.39
50310;BME280;36207;51.850;21.698;2024-01-15T08:58:26;97397.77;;;0.32;90.67
50310;BME280;36207;51.850;21.698;2024-01-15T09:00:52;97398.65;;;0.27;90.81
50310;BME280;36207;51.850;21.698;2024-01-15T09:03:18;97398.92;;;0.25;91.09
50310;BME280;36207;51.850;21.698;2024-01-15T09:05:44;97393.19;;;0.22;91.34
50310;BME280;36207;51.850;21.698;2024-01-15T09:08:10;97397.50;;;0.19;91.32
50310;BME280;36207;51.850;21.698;2024-01-15T09:10:36;97401.56;;;0.16;91.71
50310;BME280;36207;51.850;21.698;2024-01-15T09:13:02;97399.05;;;0.15;91.61
50310;BME280;36207;51.850;21.698;2024-01-15T09:15:30;97398.93;;;0.14;91.61
50310;BME280;36207;51.850;21.698;2024-01-15T09:17:56;97397.42;;;0.14;91.76
50310;BME280;36207;51.850;21.698;2024-01-15T09:20:24;97399.42;;;0.13;91.70
50310;BME280;36207;51.850;21.698;2024-01-15T09:22:51;97408.36;;;0.12;91.87
50310;BME280;36207;51.850;21.698;2024-01-15T09:25:17;97408.21;;;0.10;91.93
50310;BME280;36207;51.850;21.698;2024-01-15T09:27:44;97400.73;;;0.11;91.51
50310;BME280;36207;51.850;21.698;2024-01-15T09:30:11;97404.34;;;0.13;91.24
50310;BME280;36207;51.850;21.698;2024-01-15T09:32:37;97402.61;;;0.13;91.30
50310;BME280;36207;51.850;21.698;2024-01-15T09:35:03;97405.03;;;0.13;91.47
50310;BME280;36207;51.850;21.698;2024-01-15T09:37:29;97406.35;;;0.12;91.67
50310;BME280;36207;51.850;21.698;2024-01-15T09:39:55;97412.72;;;0.12;91.93
50310;BME280;36207;51.850;21.698;2024-01-15T09:42:24;97405.27;;;0.15;91.71
50310;BME280;36207;51.850;21.698;2024-01-15T09:44:51;97398.94;;;0.20;90.33
50310;BME280;36207;51.850;21.698;2024-01-15T09:47:18;97391.06;;;0.28;89.87
50310;BME280;36207;51.850;21.698;2024-01-15T09:49:45;97389.90;;;0.33;88.30
50310;BME280;36207;51.850;21.698;2024-01-15T09:52:11;97384.42;;;0.37;87.68
50310;BME280;36207;51.850;21.698;2024-01-15T09:54:37;97386.48;;;0.39;86.54
50310;BME280;36207;51.850;21.698;2024-01-15T09:57:04;97386.09;;;0.40;86.54
50310;BME280;36207;51.850;21.698;2024-01-15T09:59:32;97382.19;;;0.40;85.40
50310;BME280;36207;51.850;21.698;2024-01-15T10:01:58;97377.33;;;0.46;85.69
50310;BME280;36207;51.850;21.698;2024-01-15T10:04:26;97375.64;;;0.55;84.78
50310;BME280;36207;51.850;21.698;2024-01-15T10:06:53;97371.60;;;0.55;83.64
50310;BME280;36207;51.850;21.698;2024-01-15T10:09:20;97370.01;;;0.54;83.82
50310;BME280;36207;51.850;21.698;2024-01-15T10:11:46;97372.06;;;0.56;84.09
50310;BME280;36207;51.850;21.698;2024-01-15T10:14:12;97375.90;;;0.56;83.96
50310;BME280;36207;51.850;21.698;2024-01-15T10:16:39;97376.11;;;0.57;83.34
50310;BME280;36207;51.850;21.698;2024-01-15T10:19:05;97372.46;;;0.57;82.81
50310;BME280;36207;51.850;21.698;2024-01-15T10:21:35;97366.77;;;0.62;82.93
50310;BME280;36207;51.850;21.698;2024-01-15T10:24:03;97363.23;;;0.70;82.95
50310;BME280;36207;51.850;21.698;2024-01-15T10:26:30;97363.58;;;0.74;82.29
50310;BME280;36207;51.850;21.698;2024-01-15T10:28:58;97366.56;;;0.77;82.43
50310;BME280;36207;51.850;21.698;2024-01-15T10:31:25;97367.24;;;0.79;81.39
50310;BME280;36207;51.850;21.698;2024-01-15T10:33:51;97363.75;;;0.79;81.07
50310;BME280;36207;51.850;21.698;2024-01-15T10:36:18;97360.66;;;0.74;81.03
50310;BME280;36207;51.850;21.698;2024-01-15T10:38:45;97359.33;;;0.73;81.03
50310;BME280;36207;51.850;21.698;2024-01-15T10:41:11;97363.70;;;0.73;81.10
50310;BME280;36207;51.850;21.698;2024-01-15T10:43:37;97354.92;;;0.73;80.63
50310;BME280;36207;51.850;21.698;2024-01-15T10:46:04;97354.07;;;0.73;80.87
50310;BME280;36207;51.850;21.698;2024-01-15T10:48:30;97356.22;;;0.71;80.54
50310;BME280;36207;51.850;21.698;2024-01-15T10:51:01;97354.70;;;0.69;80.31
50310;BME280;36207;51.850;21.698;2024-01-15T10:53:30;97359.26;;;0.69;80.73
50310;BME280;36207;51.850;21.698;2024-01-15T10:55:58;97361.34;;;0.71;80.95
50310;BME280;36207;51.850;21.698;2024-01-15T10:58:28;97368.65;;;0.73;81.04
50310;BME280;36207;51.850;21.698;2024-01-15T11:00:56;97362.23;;;0.74;80.87
50310;BME280;36207;51.850;21.698;2024-01-15T11:03:23;97367.50;;;0.74;80.72
50310;BME280;36207;51.850;21.698;2024-01-15T11:05:49;97371.09;;;0.74;80.86
50310;BME280;36207;51.850;21.698;2024-01-15T11:08:17;97368.36;;;0.72;80.37
50310;BME280;36207;51.850;21.698;2024-01-15T11:13:22;97366.55;;;0.70;80.74
50310;BME280;36207;51.850;21.698;2024-01-15T11:16:10;97366.45;;;0.70;80.70
50310;BME280;36207;51.850;21.698;2024-01-15T11:18:41;97370.05;;;0.70;80.78
50310;BME280;36207;51.850;21.698;2024-01-15T11:26:37;97368.46;;;0.65;80.23
50310;BME280;36207;51.850;21.698;2024-01-15T11:29:09;97364.29;;;0.67;80.33
50310;BME280;36207;51.850;21.698;2024-01-15T11:34:06;97357.96;;;0.65;79.40
50310;BME280;36207;51.850;21.698;2024-01-15T11:41:57;97349.17;;;0.72;80.08
50310;BME280;36207;51.850;21.698;2024-01-15T11:44:24;97346.59;;;0.73;79.19
50310;BME280;36207;51.850;21.698;2024-01-15T11:46:57;97349.45;;;0.75;79.44
50310;BME280;36207;51.850;21.698;2024-01-15T11:52:20;97341.62;;;0.90;78.17
50310;BME280;36207;51.850;21.698;2024-01-15T11:55:12;97341.52;;;0.97;77.93
50310;BME280;36207;51.850;21.698;2024-01-15T11:57:50;97348.59;;;1.03;78.12
50310;BME280;36207;51.850;21.698;2024-01-15T12:00:17;97347.73;;;1.09;77.63
50310;BME280;36207;51.850;21.698;2024-01-15T12:02:46;97344.83;;;1.10;77.09
50310;BME280;36207;51.850;21.698;2024-01-15T12:05:14;97349.24;;;1.11;77.23
50310;BME280;36207;51.850;21.698;2024-01-15T12:07:41;97346.20;;;1.10;76.83
50310;BME280;36207;51.850;21.698;2024-01-15T12:10:27;97342.00;;;1.10;76.80
50310;BME280;36207;51.850;21.698;2024-01-15T12:13:10;97341.59;;;1.10;76.67
50310;BME280;36207;51.850;21.698;2024-01-15T12:15:36;97342.83;;;1.12;76.50
50310;BME280;36207;51.850;21.698;2024-01-15T12:18:04;97346.27;;;1.09;75.87
50310;BME280;36207;51.850;21.698;2024-01-15T12:20:31;97346.70;;;1.08;76.33
50310;BME280;36207;51.850;21.698;2024-01-15T12:22:58;97350.23;;;1.10;76.77
50310;BME280;36207;51.850;21.698;2024-01-15T12:25:24;97353.36;;;1.10;77.13
50310;BME280;36207;51.850;21.698;2024-01-15T12:27:53;97354.72;;;1.08;76.15
50310;BME280;36207;51.850;21.698;2024-01-15T12:30:20;97353.67;;;1.03;75.88
50310;BME280;36207;51.850;21.698;2024-01-15T12:32:46;97358.23;;;0.99;75.96
50310;BME280;36207;51.850;21.698;2024-01-15T12:35:15;97351.48;;;0.95;76.03
50310;BME280;36207;51.850;21.698;2024-01-15T12:37:42;97351.27;;;0.91;76.11
50310;BME280;36207;51.850;21.698;2024-01-15T12:40:09;97350.55;;;0.88;76.42
50310;BME280;36207;51.850;21.698;2024-01-15T12:42:42;97348.98;;;0.86;76.88
50310;BME280;36207;51.850;21.698;2024-01-15T12:45:12;97352.30;;;0.83;77.40
50310;BME280;36207;51.850;21.698;2024-01-15T12:47:39;97342.73;;;0.80;77.25
50310;BME280;36207;51.850;21.698;2024-01-15T12:50:10;97340.35;;;0.81;77.46
50310;BME280;36207;51.850;21.698;2024-01-15T12:52:36;97343.98;;;0.80;77.50
50310;BME280;36207;51.850;21.698;2024-01-15T12:55:08;97341.73;;;0.75;77.56
50310;BME280;36207;51.850;21.698;2024-01-15T12:57:35;97342.50;;;0.72;77.38
50310;BME280;36207;51.850;21.698;2024-01-15T13:00:02;97343.84;;;0.73;77.07
50310;BME280;36207;51.850;21.698;2024-01-15T13:02:33;97348.36;;;0.73;77.26
50310;BME280;36207;51.850;21.698;2024-01-15T13:05:01;97350.57;;;0.75;77.33
50310;BME280;36207;51.850;21.698;2024-01-15T13:07:27;97345.83;;;0.76;77.21
50310;BME280;36207;51.850;21.698;2024-01-15T13:09:53;97347.77;;;0.79;77.80
50310;BME280;36207;51.850;21.698;2024-01-15T13:12:20;97352.27;;;0.77;78.41
50310;BME280;36207;51.850;21.698;2024-01-15T13:14:46;97342.98;;;0.72;78.78
50310;BME280;36207;51.850;21.698;2024-01-15T13:17:13;97336.71;;;0.69;79.06
50310;BME280;36207;51.850;21.698;2024-01-15T13:19:42;97328.48;;;0.67;79.03